createdAt,value
2022-08-10T00:00:47.970Z,26.80
2022-08-10T00:03:18.503Z,31.80
2022-08-10T00:05:52.656Z,26.80
2022-08-10T00:08:23.845Z,26.20
2022-08-10T00:10:58.273Z,29.40
2022-08-10T00:13:29.330Z,29.20
2022-08-10T00:15:59.699Z,35.40
2022-08-10T00:18:34.996Z,33.20
2022-08-10T00:21:03.398Z,30.60
2022-08-10T00:23:35.702Z,26.60
2022-08-10T00:26:06.555Z,32.20
2022-08-10T00:28:36.922Z,33.80
2022-08-10T00:31:07.439Z,25.40
2022-08-10T00:33:37.795Z,29.60
2022-08-10T00:36:08.391Z,31.20
2022-08-10T00:38:38.819Z,35.00
2022-08-10T00:41:09.309Z,24.20
2022-08-10T00:43:39.738Z,23.40
2022-08-10T00:46:10.145Z,30.20
2022-08-10T00:48:40.921Z,36.20
2022-08-10T00:51:12.477Z,34.80
2022-08-10T00:53:42.817Z,33.80
2022-08-10T00:57:09.904Z,23.80
2022-08-10T00:58:46.747Z,35.00
2022-08-10T01:02:11.131Z,33.20
2022-08-10T01:04:36.283Z,26.00
2022-08-10T01:06:27.129Z,31.80
2022-08-10T01:09:36.283Z,33.00
2022-08-10T01:12:38.188Z,34.80
2022-08-10T01:15:18.837Z,31.20
2022-08-10T01:17:52.358Z,32.20
2022-08-10T01:20:30.210Z,29.60
2022-08-10T01:23:14.600Z,32.80
2022-08-10T01:26:30.553Z,29.00
2022-08-10T01:29:09.124Z,28.00
2022-08-10T01:31:42.847Z,28.40
2022-08-10T01:34:16.040Z,31.20
2022-08-10T01:36:50.911Z,29.80
2022-08-10T01:39:24.534Z,30.60
2022-08-10T01:41:57.800Z,33.60
2022-08-10T01:47:32.014Z,34.40
2022-08-10T01:53:12.592Z,30.40
2022-08-10T01:55:44.390Z,31.80
2022-08-10T01:58:18.073Z,30.20
2022-08-10T02:00:51.153Z,31.40
2022-08-10T02:03:24.389Z,38.00
2022-08-10T02:05:57.318Z,32.00
2022-08-10T02:08:29.216Z,37.40
2022-08-10T02:11:01.209Z,29.20
2022-08-10T02:13:33.364Z,32.20
2022-08-10T02:16:05.566Z,30.40
2022-08-10T02:18:56.639Z,31.40
2022-08-10T02:21:28.790Z,31.20
2022-08-10T02:24:01.958Z,29.60
2022-08-10T02:26:33.504Z,28.80
2022-08-10T02:29:04.698Z,31.80
2022-08-10T02:31:36.549Z,30.20
2022-08-10T02:34:09.766Z,39.40
2022-08-10T02:36:44.719Z,32.00
2022-08-10T02:39:17.537Z,36.20
2022-08-10T02:45:15.497Z,37.00
2022-08-10T02:45:21.689Z,34.00
2022-08-10T02:47:24.476Z,38.40
2022-08-10T02:49:57.615Z,41.40
2022-08-10T02:52:32.472Z,40.75
2022-08-10T02:55:17.656Z,42.20
2022-08-10T02:58:16.832Z,41.00
2022-08-10T03:00:13.514Z,38.00
2022-08-10T03:02:46.224Z,38.00
2022-08-10T03:05:17.962Z,38.80
2022-08-10T03:07:53.948Z,29.40
2022-08-10T03:10:31.793Z,38.40
2022-08-10T03:13:05.330Z,41.40
2022-08-10T03:15:38.890Z,41.25
2022-08-10T03:18:11.567Z,45.50
2022-08-10T03:20:43.502Z,39.40
2022-08-10T03:23:16.248Z,39.80
2022-08-10T03:25:52.780Z,38.25
2022-08-10T03:28:26.486Z,42.75
2022-08-10T03:31:00.641Z,40.50
2022-08-10T03:33:36.847Z,46.40
2022-08-10T03:36:42.493Z,43.25
2022-08-10T03:38:40.211Z,40.75
2022-08-10T03:41:15.821Z,47.75
2022-08-10T03:43:50.600Z,48.25
2022-08-10T03:46:23.994Z,45.25
2022-08-10T03:48:56.964Z,47.50
2022-08-10T03:51:27.868Z,43.75
2022-08-10T03:54:03.070Z,43.60
2022-08-10T03:56:33.004Z,43.40
2022-08-10T03:59:04.311Z,42.40
2022-08-10T04:02:43.144Z,38.00
2022-08-10T04:04:12.377Z,36.80
2022-08-10T04:06:40.265Z,39.20
2022-08-10T04:09:10.916Z,34.20
2022-08-10T04:11:41.335Z,32.60
2022-08-10T04:14:38.038Z,30.80
2022-08-10T04:16:46.841Z,27.80
2022-08-10T04:19:19.495Z,28.20
2022-08-10T04:22:19.478Z,22.40
2022-08-10T04:24:52.904Z,30.60
2022-08-10T04:27:23.404Z,27.60
2022-08-10T04:29:54.862Z,24.00
2022-08-10T04:32:26.862Z,26.80
2022-08-10T04:34:59.423Z,22.40
2022-08-10T04:37:31.630Z,28.20
2022-08-10T04:40:29.546Z,28.20
2022-08-10T04:43:01.405Z,29.00
2022-08-10T04:45:47.282Z,25.20
2022-08-10T04:48:02.984Z,27.60
2022-08-10T04:50:32.164Z,32.00
2022-08-10T04:53:02.851Z,28.20
2022-08-10T04:55:33.553Z,26.40
2022-08-10T04:58:04.007Z,31.20
2022-08-10T05:00:34.421Z,29.80
2022-08-10T05:03:04.644Z,28.00
2022-08-10T05:05:35.502Z,33.20
2022-08-10T05:08:06.797Z,31.00
2022-08-10T05:10:37.221Z,24.80
2022-08-10T05:13:08.593Z,29.00
2022-08-10T05:15:39.824Z,27.00
2022-08-10T05:18:11.431Z,32.40
2022-08-10T05:20:41.964Z,30.80
2022-08-10T05:23:12.337Z,36.20
2022-08-10T05:25:43.373Z,32.20
2022-08-10T05:28:13.760Z,36.60
2022-08-10T05:30:44.157Z,33.00
2022-08-10T05:33:14.492Z,30.40
2022-08-10T05:35:56.965Z,35.80
2022-08-10T05:38:18.209Z,37.20
2022-08-10T05:40:49.766Z,24.00
2022-08-10T05:43:22.032Z,31.80
2022-08-10T05:46:19.451Z,30.40
2022-08-10T05:48:57.588Z,34.60
2022-08-10T05:50:57.803Z,28.60
2022-08-10T05:54:03.022Z,35.40
2022-08-10T05:56:01.629Z,32.80
2022-08-10T05:58:32.340Z,30.60
2022-08-10T06:01:06.005Z,25.00
2022-08-10T06:03:43.513Z,30.60
2022-08-10T06:06:34.379Z,32.00
2022-08-10T06:09:06.327Z,28.20
2022-08-10T06:12:24.384Z,31.20
2022-08-10T06:14:16.045Z,29.60
2022-08-10T06:16:45.750Z,29.00
2022-08-10T06:19:16.899Z,29.00
2022-08-10T06:22:00.690Z,30.20
2022-08-10T06:24:19.928Z,29.00
2022-08-10T06:26:51.879Z,27.20
2022-08-10T06:29:24.331Z,32.20
2022-08-10T06:31:56.032Z,37.20
2022-08-10T06:34:32.035Z,29.00
2022-08-10T06:37:23.188Z,31.40
2022-08-10T06:39:54.202Z,27.00
2022-08-10T06:42:33.508Z,27.40
2022-08-10T06:45:33.485Z,28.00
2022-08-10T06:48:08.009Z,24.80
2022-08-10T06:50:56.099Z,31.40
2022-08-10T06:53:20.745Z,29.40
2022-08-10T06:55:56.407Z,29.00
2022-08-10T06:58:28.536Z,29.20
2022-08-10T07:01:00.741Z,30.80
2022-08-10T07:03:34.038Z,26.80
2022-08-10T07:06:06.826Z,33.20
2022-08-10T07:08:39.962Z,32.80
2022-08-10T07:11:12.197Z,33.60
2022-08-10T07:14:14.410Z,29.20
2022-08-10T07:16:56.050Z,29.00
2022-08-10T07:19:27.683Z,30.60
2022-08-10T07:21:59.858Z,30.20
2022-08-10T07:24:31.783Z,29.80
2022-08-10T07:27:04.399Z,27.80
2022-08-10T07:29:54.505Z,32.00
2022-08-10T07:32:09.974Z,27.00
2022-08-10T07:34:41.879Z,31.20
2022-08-10T07:37:13.407Z,28.80
2022-08-10T07:40:01.880Z,29.20
2022-08-10T07:42:23.372Z,32.20
2022-08-10T07:44:53.969Z,32.20
2022-08-10T07:47:53.207Z,33.60
2022-08-10T07:50:11.746Z,36.60
2022-08-10T07:52:44.800Z,31.40
2022-08-10T07:55:17.543Z,30.40
2022-08-10T07:57:51.396Z,27.80
2022-08-10T08:00:23.053Z,32.60
2022-08-10T08:02:56.180Z,33.60
2022-08-10T08:05:58.148Z,33.00
2022-08-10T08:08:02.992Z,28.20
2022-08-10T08:10:34.636Z,30.80
2022-08-10T08:13:06.607Z,33.00
2022-08-10T08:16:21.275Z,26.20
2022-08-10T08:18:11.872Z,30.00
2022-08-10T08:20:45.531Z,33.20
2022-08-10T08:24:09.319Z,26.00
2022-08-10T08:25:59.815Z,32.60
2022-08-10T08:28:30.730Z,31.80
2022-08-10T08:31:02.376Z,32.60
2022-08-10T08:33:42.108Z,28.40
2022-08-10T08:36:13.025Z,30.60
2022-08-10T08:38:45.639Z,29.00
2022-08-10T08:44:48.082Z,31.00
2022-08-10T08:48:04.237Z,29.00
2022-08-10T08:50:48.311Z,29.20
2022-08-10T08:54:02.170Z,28.60
2022-08-10T08:56:43.259Z,27.80
2022-08-10T08:59:17.002Z,22.20
2022-08-10T09:02:02.421Z,25.80
2022-08-10T09:04:44.665Z,27.00
2022-08-10T09:08:00.341Z,24.80
2022-08-10T09:10:21.310Z,24.00
2022-08-10T09:18:41.674Z,26.60
2022-08-10T09:21:17.602Z,26.80
2022-08-10T09:24:05.267Z,24.00
2022-08-10T09:26:37.623Z,28.00
2022-08-10T09:29:13.207Z,26.60
2022-08-10T09:32:55.019Z,27.40
2022-08-10T09:36:27.004Z,29.60
2022-08-10T09:37:10.324Z,26.20
2022-08-10T09:40:12.540Z,27.20
2022-08-10T09:43:23.634Z,24.80
2022-08-10T09:49:17.360Z,25.60
2022-08-10T09:52:12.622Z,26.20
2022-08-10T09:57:56.867Z,29.00
2022-08-10T10:00:29.434Z,28.40
2022-08-10T10:03:25.849Z,33.60
2022-08-10T10:06:07.762Z,29.60
2022-08-10T10:09:10.034Z,30.60
2022-08-10T10:11:56.721Z,32.00
2022-08-10T10:14:55.753Z,31.60
2022-08-10T10:20:25.974Z,29.20
2022-08-10T10:23:23.421Z,26.60
2022-08-10T10:26:13.046Z,29.20
2022-08-10T10:31:43.285Z,28.00
2022-08-10T10:34:34.325Z,22.60
2022-08-10T10:37:06.695Z,18.60
2022-08-10T10:39:40.010Z,28.40
2022-08-10T10:42:46.920Z,29.00
2022-08-10T10:45:22.689Z,23.60
2022-08-10T10:48:10.851Z,22.40
2022-08-10T10:54:11.727Z,25.00
2022-08-10T10:56:51.229Z,26.60
2022-08-10T10:59:55.714Z,27.80
2022-08-10T11:02:51.759Z,24.80
2022-08-10T11:05:36.008Z,28.20
2022-08-10T11:08:14.550Z,24.80
2022-08-10T11:10:56.453Z,22.80
2022-08-10T11:14:27.302Z,23.20
2022-08-10T11:16:34.866Z,27.40
2022-08-10T11:22:07.351Z,27.00
2022-08-10T11:24:56.465Z,27.20
2022-08-10T11:30:42.291Z,25.80
2022-08-10T11:34:04.128Z,28.40
2022-08-10T11:36:13.281Z,24.40
2022-08-10T11:39:14.287Z,27.60
2022-08-10T11:42:09.401Z,26.80
2022-08-10T11:44:52.035Z,27.60
2022-08-10T11:47:33.773Z,26.40
2022-08-10T11:50:22.169Z,26.20
2022-08-10T11:53:19.353Z,26.40
2022-08-10T11:55:58.483Z,26.40
2022-08-10T11:58:31.725Z,23.80
2022-08-10T12:01:05.546Z,23.60
2022-08-10T12:03:39.289Z,23.40
2022-08-10T12:06:33.669Z,24.00
2022-08-10T12:10:07.080Z,24.60
2022-08-10T12:11:29.653Z,22.80
2022-08-10T12:14:21.756Z,24.20
2022-08-10T12:16:52.794Z,23.80
2022-08-10T12:20:02.834Z,25.20
2022-08-10T12:22:37.934Z,25.60
2022-08-10T12:25:55.033Z,23.40
2022-08-10T12:27:55.056Z,23.20
2022-08-10T12:30:29.360Z,23.60
2022-08-10T12:33:11.435Z,25.00
2022-08-10T12:36:17.869Z,23.20
2022-08-10T12:38:58.755Z,22.20
2022-08-10T12:41:45.496Z,23.60
2022-08-10T12:44:42.763Z,24.60
2022-08-10T12:47:16.361Z,24.60
2022-08-10T12:50:29.358Z,24.20
2022-08-10T12:52:59.499Z,26.60
2022-08-10T12:55:32.553Z,24.00
2022-08-10T12:58:05.426Z,21.00
2022-08-10T13:01:05.783Z,23.80
2022-08-10T13:03:13.151Z,25.60
2022-08-10T13:06:02.605Z,25.60
2022-08-10T13:08:27.185Z,25.60
2022-08-10T13:10:59.863Z,26.20
2022-08-10T13:13:35.816Z,24.00
2022-08-10T13:16:07.431Z,26.20
2022-08-10T13:18:41.060Z,26.20
2022-08-10T13:21:19.960Z,27.20
2022-08-10T13:24:12.959Z,18.80
2022-08-10T13:27:26.464Z,24.20
2022-08-10T13:29:51.699Z,24.20
2022-08-10T13:32:25.090Z,26.20
2022-08-10T13:37:57.686Z,23.00
2022-08-10T13:40:29.139Z,28.40
2022-08-10T13:43:02.077Z,31.40
2022-08-10T13:45:33.294Z,31.20
2022-08-10T13:48:12.034Z,28.80
2022-08-10T13:50:47.035Z,27.80
2022-08-10T13:53:19.210Z,22.60
2022-08-10T13:55:54.351Z,23.80
2022-08-10T13:58:33.853Z,24.60
2022-08-10T14:01:24.845Z,26.20
2022-08-10T14:03:56.105Z,28.60
2022-08-10T14:06:29.605Z,28.00
2022-08-10T14:09:26.850Z,14.80
2022-08-10T14:11:59.981Z,28.20
2022-08-10T14:14:32.240Z,29.80
2022-08-10T14:26:46.945Z,27.60
2022-08-10T14:29:22.241Z,27.80
2022-08-10T14:32:00.547Z,26.20
2022-08-10T14:36:14.991Z,25.20
2022-08-10T14:37:03.330Z,19.20
2022-08-10T14:39:42.222Z,28.00
2022-08-10T14:45:04.429Z,26.40
2022-08-10T14:47:59.521Z,27.00
2022-08-10T14:50:32.352Z,28.40
2022-08-10T14:53:29.256Z,26.40
2022-08-10T14:56:21.751Z,26.80
2022-08-10T14:58:59.049Z,25.40
2022-08-10T15:02:00.720Z,29.20
2022-08-10T15:04:07.038Z,26.20
2022-08-10T15:06:55.109Z,28.20
2022-08-10T15:12:25.043Z,24.60
2022-08-10T15:14:54.369Z,24.00
2022-08-10T15:17:27.771Z,24.20
2022-08-10T15:20:13.520Z,31.20
2022-08-10T15:22:38.692Z,30.20
2022-08-10T15:25:17.711Z,29.60
2022-08-10T15:27:55.078Z,28.60
2022-08-10T15:30:19.152Z,27.80
2022-08-10T15:32:54.836Z,26.60
2022-08-10T15:35:28.838Z,32.40
2022-08-10T15:38:23.237Z,29.40
2022-08-10T15:40:58.222Z,25.60
2022-08-10T15:43:36.887Z,25.80
2022-08-10T15:49:14.709Z,31.00
2022-08-10T15:52:08.784Z,28.00
2022-08-10T15:54:42.705Z,25.40
2022-08-10T15:57:17.604Z,28.00
2022-08-10T15:59:55.243Z,29.00
2022-08-10T16:02:28.529Z,30.00
2022-08-10T16:05:07.579Z,28.40
2022-08-10T16:07:46.021Z,27.40
2022-08-10T16:10:28.703Z,30.20
2022-08-10T16:13:59.759Z,29.20
2022-08-10T16:15:41.139Z,34.60
2022-08-10T16:18:14.376Z,30.00
2022-08-10T16:20:54.901Z,28.60
2022-08-10T16:23:28.841Z,26.80
2022-08-10T16:26:14.726Z,28.00
2022-08-10T16:28:46.692Z,23.60
2022-08-10T16:31:19.894Z,24.20
2022-08-10T16:33:54.949Z,25.60
2022-08-10T16:36:34.259Z,22.00
2022-08-10T16:39:15.781Z,21.60
2022-08-10T16:42:04.122Z,25.60
2022-08-10T16:44:41.341Z,24.40
2022-08-10T16:47:13.293Z,25.60
2022-08-10T16:49:48.653Z,29.60
2022-08-10T16:52:22.072Z,25.60
2022-08-10T16:54:55.286Z,28.80
2022-08-10T16:57:28.570Z,28.60
2022-08-10T16:59:59.717Z,24.40
2022-08-10T17:02:31.618Z,27.60
2022-08-10T17:11:16.752Z,26.00
2022-08-10T17:13:48.844Z,21.40
2022-08-10T17:16:19.179Z,23.60
2022-08-10T17:18:51.662Z,25.00
2022-08-10T17:21:24.711Z,22.40
2022-08-10T17:28:04.947Z,20.40
2022-08-10T17:30:04.257Z,22.20
2022-08-10T17:36:32.505Z,23.00
2022-08-10T17:39:04.621Z,23.60
2022-08-10T17:41:37.863Z,23.00
2022-08-10T17:44:10.163Z,21.20
2022-08-10T17:46:43.084Z,17.80
2022-08-10T17:49:16.314Z,23.40
2022-08-10T17:51:52.382Z,23.40
2022-08-10T17:54:25.720Z,19.40
2022-08-10T17:57:03.388Z,16.40
2022-08-10T17:59:38.157Z,20.20
2022-08-10T18:05:19.946Z,21.80
2022-08-10T18:07:53.526Z,19.00
2022-08-10T18:10:24.321Z,21.80
2022-08-10T18:12:59.694Z,17.40
2022-08-10T18:15:30.921Z,20.00
2022-08-10T18:18:03.403Z,25.40
2022-08-10T18:20:59.062Z,21.20
2022-08-10T18:26:37.919Z,24.40
2022-08-10T18:29:23.572Z,19.00
2022-08-10T18:32:02.759Z,23.80
2022-08-10T18:34:34.813Z,21.80
2022-08-10T18:37:08.850Z,22.20
2022-08-10T18:39:53.413Z,21.40
2022-08-10T18:42:55.862Z,23.00
2022-08-10T18:45:44.928Z,17.80
2022-08-10T18:48:41.005Z,32.20
2022-08-10T18:51:35.834Z,28.60
2022-08-10T19:00:16.975Z,27.60
2022-08-10T19:12:30.045Z,27.20
2022-08-10T19:15:08.122Z,27.60
2022-08-10T19:18:02.892Z,26.40
2022-08-10T19:20:53.272Z,24.60
2022-08-10T19:23:59.709Z,26.00
2022-08-10T19:26:48.223Z,20.60
2022-08-10T19:30:09.857Z,18.80
2022-08-10T19:32:34.104Z,22.20
2022-08-10T19:35:25.091Z,25.80
2022-08-10T19:38:01.617Z,23.00
2022-08-10T19:53:10.233Z,24.80
2022-08-10T19:56:24.675Z,21.00
2022-08-10T19:58:43.745Z,20.40
2022-08-10T20:01:15.902Z,18.00
2022-08-10T20:03:54.975Z,19.40
2022-08-10T20:06:40.365Z,26.60
2022-08-10T20:09:34.345Z,21.20
2022-08-10T20:12:14.109Z,20.40
2022-08-10T20:15:04.477Z,19.80
2022-08-10T20:17:51.436Z,25.00
2022-08-10T20:23:20.737Z,23.00
2022-08-10T20:26:02.922Z,20.20
2022-08-10T20:28:45.844Z,16.40
2022-08-10T20:31:21.662Z,20.00
2022-08-10T20:34:00.221Z,19.00
2022-08-10T20:36:33.621Z,20.00
2022-08-10T20:39:07.298Z,16.60
2022-08-10T20:41:46.695Z,21.00
2022-08-10T20:44:55.227Z,18.00
2022-08-10T20:47:54.126Z,17.20
2022-08-10T20:50:28.353Z,21.40
2022-08-10T20:53:01.659Z,18.60
2022-08-10T20:55:54.344Z,20.40
2022-08-10T20:58:44.521Z,19.80
2022-08-10T21:01:17.557Z,26.20
2022-08-10T21:04:13.514Z,18.00
2022-08-10T21:07:28.201Z,20.40
2022-08-10T21:10:08.573Z,18.60
2022-08-10T21:12:41.874Z,21.80
2022-08-10T21:15:42.050Z,17.40
2022-08-10T21:18:22.853Z,19.40
2022-08-10T21:21:18.228Z,19.40
2022-08-10T21:23:57.038Z,20.00
2022-08-10T21:26:31.513Z,22.40
2022-08-10T21:32:35.423Z,21.80
2022-08-10T21:35:36.233Z,21.60
2022-08-10T21:38:26.436Z,20.80
2022-08-10T21:41:18.853Z,19.60
2022-08-10T21:43:49.332Z,22.80
2022-08-10T21:46:58.872Z,17.20
2022-08-10T21:49:38.906Z,21.20
2022-08-10T21:52:34.196Z,22.80
2022-08-10T21:55:13.416Z,20.80
2022-08-10T21:58:01.927Z,20.20
2022-08-10T22:00:35.288Z,22.00
2022-08-10T22:03:06.771Z,21.00
2022-08-10T22:05:39.548Z,22.80
2022-08-10T22:08:15.537Z,24.20
2022-08-10T22:10:48.815Z,21.40
2022-08-10T22:13:21.133Z,25.20
2022-08-10T22:18:34.469Z,23.60
2022-08-10T22:21:27.948Z,19.20
2022-08-10T22:27:47.399Z,23.40
2022-08-10T22:30:03.031Z,22.80
2022-08-10T22:31:25.897Z,22.80
2022-08-10T22:32:36.519Z,23.80
2022-08-10T22:35:30.193Z,28.40
2022-08-10T22:41:31.454Z,25.40
2022-08-10T22:44:02.889Z,24.40
2022-08-10T22:46:34.642Z,25.00
2022-08-10T22:49:05.840Z,23.20
2022-08-10T22:52:00.396Z,18.40
2022-08-10T22:55:00.513Z,24.60
2022-08-10T22:57:31.303Z,28.00
2022-08-10T23:00:13.285Z,27.60
2022-08-10T23:03:04.313Z,22.00
2022-08-10T23:05:37.571Z,27.60
2022-08-10T23:08:30.608Z,25.00
2022-08-10T23:10:59.534Z,25.00
2022-08-10T23:13:36.247Z,28.60
2022-08-10T23:16:40.404Z,29.40
2022-08-10T23:19:40.148Z,24.60
2022-08-10T23:22:13.043Z,22.40
2022-08-10T23:25:06.654Z,22.80
2022-08-10T23:27:41.925Z,21.40
2022-08-10T23:30:16.988Z,23.60
2022-08-10T23:32:50.103Z,23.40
2022-08-10T23:36:29.877Z,20.40
2022-08-10T23:37:56.758Z,23.20
2022-08-10T23:40:28.338Z,26.20
2022-08-10T23:42:59.711Z,25.00
2022-08-10T23:45:53.593Z,26.20
2022-08-10T23:48:06.785Z,16.20
2022-08-10T23:50:38.385Z,23.60
2022-08-10T23:53:13.335Z,30.20
2022-08-10T23:55:49.197Z,23.60
2022-08-10T23:58:33.434Z,27.20
